Time;durP1;ratioP1;P1;durP2;ratioP2;P2;SDS_P1;SDS_P2;PMS_P1;PMS_P2;Temp;Humidity;BMP_temperature;BMP_pressure;BME280_temperature;BME280_humidity;BME280_pressure;Samples;Min_cycle;Max_cycle;Signal;HPM_P1;HPM_P2
2022/01/25 00:28:47;;;;;;;;;;;;;;;-6.27;100.00;100826.76;1741345;82;20987;-62
2022/01/25 00:31:10;;;;;;;13.08;6.30;;;;;;;-6.25;100.00;100830.61;1744952;82;20111;-61
2022/01/25 00:33:34;;;;;;;15.90;7.45;;;;;;;-6.25;100.00;100826.63;1736378;82;20979;-62
2022/01/25 00:36:02;;;;;;;12.25;6.58;;;;;;;-6.27;100.00;100829.41;1737106;82;21054;-62
2022/01/25 00:38:28;;;;;;;10.63;6.05;;;;;;;-6.24;100.00;100823.02;1738469;82;20975;-62
2022/01/25 00:40:55;;;;;;;12.18;6.20;;;;;;;-6.22;100.00;100820.57;1731783;82;21023;-62
2022/01/25 00:43:23;;;;;;;13.25;7.10;;;;;;;-6.25;100.00;100821.33;1733318;82;20987;-61
2022/01/25 00:45:53;;;;;;;14.23;7.40;;;;;;;-6.28;100.00;100825.59;1738926;82;21550;-61
2022/01/25 00:48:30;;;;;;;13.03;5.85;;;;;;;-6.32;100.00;100822.38;1748448;81;20947;-62
2022/01/25 00:50:47;;;;;;;14.90;7.00;;;;;;;-6.29;100.00;100826.07;1742439;82;21074;-62
2022/01/25 00:55:58;;;;;;;13.30;6.75;;;;;;;-6.38;100.00;100822.09;1740213;82;21921;-62
2022/01/25 00:58:25;;;;;;;11.55;6.25;;;;;;;-6.40;100.00;100815.59;1728751;82;21541;-62
2022/01/25 01:00:51;;;;;;;12.18;6.47;;;;;;;-6.37;100.00;100803.39;1727430;82;21561;-61
2022/01/25 01:03:17;;;;;;;12.30;6.53;;;;;;;-6.35;100.00;100808.08;1728655;82;21497;-62
2022/01/25 01:05:44;;;;;;;14.70;7.60;;;;;;;-6.45;100.00;100808.56;1746679;82;21015;-62
2022/01/25 01:08:11;;;;;;;14.95;7.08;;;;;;;-6.49;100.00;100804.98;1742189;82;21691;-62
2022/01/25 01:10:37;;;;;;;11.75;6.62;;;;;;;-6.50;100.00;100805.47;1745265;82;21558;-61
2022/01/25 01:13:42;;;;;;;13.98;6.97;;;;;;;-6.54;100.00;100798.77;1744404;82;21540;-62
2022/01/25 01:15:55;;;;;;;14.87;6.37;;;;;;;-6.55;100.00;100791.78;1736126;82;21043;-62
2022/01/25 01:29:24;;;;;;;12.80;6.42;;;;;;;-6.49;100.00;100798.36;1726468;82;21015;-62
2022/01/25 01:40:06;;;;;;;12.70;7.15;;;;;;;-6.57;100.00;100798.56;1702111;82;20984;-63
2022/01/25 01:45:49;;;;;;;11.30;5.67;;;;;;;-6.64;100.00;100802.73;1732745;82;20991;-62
2022/01/25 01:47:26;;;;;;;;;;;;;;;-6.67;100.00;100807.45;1724503;82;21047;-63
2022/01/25 01:49:48;;;;;;;12.20;6.90;;;;;;;-6.68;100.00;100802.64;1723242;82;20133;-63
2022/01/25 01:52:15;;;;;;;13.55;6.35;;;;;;;-6.79;100.00;100799.26;1735286;82;21071;-62
2022/01/25 01:54:41;;;;;;;11.85;6.65;;;;;;;-6.79;100.00;100796.61;1728406;82;20991;-63
2022/01/25 01:57:08;;;;;;;12.65;6.62;;;;;;;-6.79;100.00;100793.96;1716369;82;21035;-62
2022/01/25 01:59:34;;;;;;;14.13;7.60;;;;;;;-6.87;100.00;100794.63;1724594;82;20991;-62
2022/01/25 02:02:01;;;;;;;13.15;7.03;;;;;;;-6.93;100.00;100791.69;1724278;82;21130;-63
2022/01/25 02:04:28;;;;;;;12.23;5.95;;;;;;;-6.97;100.00;100791.60;1727843;82;21067;-63
2022/01/25 02:06:54;;;;;;;;;;;;;;;-6.95;100.00;100786.55;1714851;82;21048;-63
2022/01/25 02:09:20;;;;;;;13.28;6.60;;;;;;;-6.96;100.00;100791.96;1721164;82;20420;-63
2022/01/25 02:11:47;;;;;;;13.28;6.20;;;;;;;-7.07;100.00;100786.28;1715509;82;21110;-63
2022/01/25 02:14:15;;;;;;;11.38;5.78;;;;;;;-7.14;100.00;100775.87;1722014;82;21054;-62
2022/01/25 02:24:49;;;;;;;11.00;6.22;;;;;;;-7.19;100.00;100775.45;1726030;82;21518;-63
2022/01/25 02:27:16;;;;;;;11.35;6.25;;;;;;;-7.18;100.00;100780.59;1741365;82;22123;-63
2022/01/25 02:29:43;;;;;;;;;;;;;;;-7.09;100.00;100769.71;1750373;81;21462;-63
2022/01/25 02:32:11;;;;;;;12.73;5.45;;;;;;;-7.07;100.00;100773.05;1739884;81;20402;-63
2022/01/25 02:34:37;;;;;;;;;;;;;;;-7.08;100.00;100778.82;1750024;81;21485;-63
2022/01/25 02:37:06;;;;;;;9.83;5.20;;;;;;;-7.06;100.00;100770.28;1741480;81;20128;-63
2022/01/25 02:39:33;;;;;;;9.70;5.60;;;;;;;-7.12;100.00;100758.08;1738151;81;20955;-64
2022/01/25 02:41:59;;;;;;;;;;;;;;;-7.10;100.00;100760.09;1752741;81;21453;-63
2022/01/25 02:44:28;;;;;;;11.05;5.80;;;;;;;-7.09;100.00;100765.27;1737163;81;20117;-63
2022/01/25 02:49:30;;;;;;;11.40;5.60;;;;;;;-7.11;100.00;100753.11;1740771;81;20983;-63
2022/01/25 02:51:57;;;;;;;11.35;5.60;;;;;;;-7.17;100.00;100750.53;1738278;81;21109;-64
2022/01/25 02:54:23;;;;;;;12.03;5.83;;;;;;;-7.20;100.00;100746.83;1751674;81;21065;-63
2022/01/25 02:56:50;;;;;;;13.65;6.20;;;;;;;-7.18;100.00;100743.55;1737336;81;21105;-63
2022/01/25 02:59:16;;;;;;;11.38;5.53;;;;;;;-7.19;100.00;100737.90;1754964;81;21026;-63
2022/01/25 03:01:44;;;;;;;10.40;5.28;;;;;;;-7.25;100.00;100730.98;1746334;81;21157;-63
2022/01/25 03:04:11;;;;;;;11.35;5.30;;;;;;;-7.23;100.00;100738.33;1710418;83;21022;-63
2022/01/25 03:06:38;;;;;;;11.00;5.78;;;;;;;-7.23;100.00;100740.97;1697982;83;21101;-63
2022/01/25 03:09:05;;;;;;;9.73;5.35;;;;;;;-7.25;100.00;100737.12;1669330;84;21039;-63
2022/01/25 03:11:31;;;;;;;11.40;5.67;;;;;;;-7.26;100.00;100732.80;1703755;83;21152;-63
2022/01/25 03:14:02;;;;;;;7.92;4.95;;;;;;;-7.23;100.00;100727.74;1701510;83;21549;-63
2022/01/25 03:16:37;;;;;;;12.30;6.08;;;;;;;-7.20;100.00;100723.50;1707246;83;21532;-63
2022/01/25 03:19:04;;;;;;;10.78;5.10;;;;;;;-7.15;100.00;100718.14;1720576;83;21493;-61
2022/01/25 03:23:57;;;;;;;12.47;6.20;;;;;;;-7.06;100.00;100705.92;1646771;84;21017;-62
2022/01/25 03:26:24;;;;;;;10.63;6.10;;;;;;;-7.16;100.00;100695.32;1695283;84;21635;-61
2022/01/25 03:28:52;;;;;;;11.70;6.72;;;;;;;-7.26;100.00;100691.78;1695821;83;21489;-61
2022/01/25 03:31:18;;;;;;;10.80;5.85;;;;;;;-7.31;100.00;100686.08;1705536;83;21105;-61
2022/01/25 03:33:45;;;;;;;;;;;;;;;-7.35;100.00;100683.83;1710515;83;21480;-61
2022/01/25 03:36:12;;;;;;;12.15;5.37;;;;;;;-7.40;100.00;100685.54;1683649;84;20435;-61
2022/01/25 03:38:40;;;;;;;10.03;5.28;;;;;;;-7.46;100.00;100678.15;1686611;84;21010;-61
2022/01/25 03:41:08;;;;;;;10.58;5.47;;;;;;;-7.43;100.00;100676.55;1694005;84;21110;-61
2022/01/25 03:43:35;;;;;;;12.53;5.72;;;;;;;-7.37;100.00;100681.81;1698412;83;20975;-61
2022/01/25 03:46:10;;;;;;;9.88;5.62;;;;;;;-7.32;100.00;100681.75;1687430;84;21679;-61
2022/01/25 03:50:59;;;;;;;11.35;5.78;;;;;;;-7.34;100.00;100669.16;1696521;84;21062;-61
2022/01/25 03:53:25;;;;;;;9.80;6.22;;;;;;;-7.37;100.00;100672.55;1698682;84;20991;-61
2022/01/25 03:55:52;;;;;;;10.28;5.97;;;;;;;-7.37;100.00;100672.08;1706418;83;21022;-62
2022/01/25 03:58:20;;;;;;;11.22;6.03;;;;;;;-7.33;100.00;100669.48;1696035;84;21014;-61
2022/01/25 04:00:46;;;;;;;9.58;5.33;;;;;;;-7.33;100.00;100669.48;1718942;83;21121;-61
2022/01/25 04:03:23;;;;;;;10.82;6.33;;;;;;;-7.36;100.00;100675.53;1719945;83;21132;-61
2022/01/25 04:08:11;;;;;;;11.63;5.55;;;;;;;-7.28;100.00;100673.89;1718859;83;21058;-63
2022/01/25 04:10:39;;;;;;;9.75;5.62;;;;;;;-7.23;100.00;100668.21;1703583;83;21050;-62
2022/01/25 04:13:07;;;;;;;11.73;5.92;;;;;;;-7.22;100.00;100675.16;1714415;83;21464;-63
2022/01/25 04:15:35;;;;;;;9.35;5.10;;;;;;;-7.25;100.00;100671.45;1721249;83;21113;-63
2022/01/25 04:20:42;;;;;;;9.60;5.78;;;;;;;-7.24;100.00;100669.17;1724318;83;21640;-62
2022/01/25 04:25:53;;;;;;;9.23;5.30;;;;;;;-7.29;100.00;100667.41;1669603;84;21122;-63
2022/01/25 04:28:19;;;;;;;10.35;5.50;;;;;;;-7.35;100.00;100655.56;1678241;84;21051;-63
2022/01/25 04:30:46;;;;;;;8.85;4.83;;;;;;;-7.40;100.00;100649.83;1691807;84;21079;-63
2022/01/25 04:33:23;;;;;;;7.72;4.67;;;;;;;-7.48;100.00;100647.53;1684101;84;21047;-63
2022/01/25 04:35:59;;;;;;;9.88;5.53;;;;;;;-7.53;100.00;100637.34;1690312;84;21103;-63
2022/01/25 04:49:28;;;;;;;9.98;5.67;;;;;;;-7.50;100.00;100650.30;1680415;84;20988;-61
2022/01/25 04:52:01;;;;;;;9.85;5.20;;;;;;;-7.49;100.00;100649.81;1682117;84;21078;-64
2022/01/25 05:00:22;;;;;;;9.95;5.12;;;;;;;-7.57;100.00;100646.51;1682229;84;20999;-62
2022/01/25 05:05:14;;;;;;;9.20;5.42;;;;;;;-7.58;100.00;100641.70;1696959;84;21004;-62
2022/01/25 05:07:53;;;;;;;7.92;4.25;;;;;;;-7.54;100.00;100639.63;1682397;84;21047;-62
2022/01/25 05:10:12;;;;;;;;;;;;;;;-7.53;100.00;100638.66;1652257;84;21051;-62
2022/01/25 05:12:50;;;;;;;7.80;3.70;;;;;;;-7.51;100.00;100632.77;1697425;84;20138;-62
2022/01/25 05:15:59;;;;;;;6.65;3.55;;;;;;;-7.52;100.00;100626.28;1684655;84;21031;-62
2022/01/25 05:23:21;;;;;;;7.55;3.65;;;;;;;-7.49;100.00;100618.08;1698456;84;21051;-62
2022/01/25 05:25:49;;;;;;;7.00;3.58;;;;;;;-7.48;100.00;100624.56;1697068;83;21590;-62
2022/01/25 05:28:15;;;;;;;7.60;3.27;;;;;;;-7.46;100.00;100625.25;1703051;84;21023;-62
2022/01/25 05:30:42;;;;;;;8.05;4.40;;;;;;;-7.47;100.00;100618.80;1693953;84;21080;-63
2022/01/25 05:33:09;;;;;;;7.12;4.40;;;;;;;-7.53;100.00;100616.19;1670388;85;21033;-63
2022/01/25 05:35:35;;;;;;;7.53;3.80;;;;;;;-7.58;100.00;100611.30;1682602;85;21078;-62
2022/01/25 05:38:02;;;;;;;;;;;;;;;-7.60;100.00;100615.05;1689186;83;21053;-62
2022/01/25 05:40:42;;;;;;;6.83;3.37;;;;;;;-7.65;100.00;100611.48;1679126;84;20162;-63
2022/01/25 05:48:12;;;;;;;8.80;4.53;;;;;;;-7.78;100.00;100595.03;1700884;84;21448;-62
2022/01/25 05:50:38;;;;;;;8.10;4.50;;;;;;;-7.85;100.00;100591.73;1678456;84;21091;-63
2022/01/25 05:53:04;;;;;;;6.45;3.30;;;;;;;-7.95;100.00;100590.38;1701616;84;21058;-63
2022/01/25 05:55:31;;;;;;;;;;;;;;;-7.98;100.00;100596.41;1701490;84;21095;-62
2022/01/25 05:57:57;;;;;;;7.53;3.90;;;;;;;-8.01;100.00;100601.48;1694617;84;20155;-63
2022/01/25 06:00:24;;;;;;;7.58;4.47;;;;;;;-8.05;100.00;100593.47;1693416;84;21074;-63
2022/01/25 06:02:54;;;;;;;8.25;3.80;;;;;;;-8.07;100.00;100600.19;1695147;84;21499;-62
2022/01/25 06:05:19;;;;;;;9.80;4.08;;;;;;;-8.06;100.00;100597.91;1683130;84;21078;-61
2022/01/25 06:07:45;;;;;;;8.83;4.53;;;;;;;-8.00;100.00;100595.20;1678685;84;21058;-62
2022/01/25 06:10:12;;;;;;;9.68;4.50;;;;;;;-7.97;100.00;100592.30;1691354;84;21110;-61
2022/01/25 06:12:42;;;;;;;11.08;5.50;;;;;;;-7.97;100.00;100596.77;1700796;84;21078;-61
2022/01/25 06:15:09;;;;;;;10.80;5.62;;;;;;;-7.96;100.00;100591.81;1679099;84;21553;-61
2022/01/25 06:17:35;;;;;;;12.00;6.53;;;;;;;-7.95;100.00;100600.95;1679263;84;21055;-62
2022/01/25 06:20:02;;;;;;;;;;;;;;;-8.01;100.00;100589.59;1680010;84;21104;-63
2022/01/25 06:22:28;;;;;;;11.38;6.15;;;;;;;-8.01;100.00;100590.08;1691137;84;20496;-61
2022/01/25 06:24:54;;;;;;;13.43;7.08;;;;;;;-8.09;100.00;100589.41;1686083;84;20999;-61
2022/01/25 06:27:21;;;;;;;14.87;7.25;;;;;;;-8.06;100.00;100591.78;1674950;84;21139;-61
2022/01/25 06:29:47;;;;;;;12.80;6.80;;;;;;;-8.04;100.00;100586.37;1692378;84;21063;-62
2022/01/25 06:32:14;;;;;;;;;;;;;;;-8.05;100.00;100588.18;1701061;84;21062;-61
2022/01/25 06:34:41;;;;;;;13.63;6.40;;;;;;;-8.04;100.00;100588.52;1673894;84;20145;-61
2022/01/25 06:37:08;;;;;;;13.22;6.97;;;;;;;-8.00;100.00;100589.08;1639879;87;21123;-61
2022/01/25 06:39:34;;;;;;;13.08;6.95;;;;;;;-7.97;100.00;100599.41;1638367;87;21070;-61
2022/01/25 06:42:01;;;;;;;12.68;7.03;;;;;;;-7.98;100.00;100593.29;1638029;87;21082;-61
2022/01/25 06:44:27;;;;;;;12.05;6.37;;;;;;;-7.97;100.00;100592.81;1687230;84;21023;-61
2022/01/25 06:46:54;;;;;;;12.10;6.03;;;;;;;-8.02;100.00;100585.75;1673373;86;21130;-61
2022/01/25 06:49:20;;;;;;;11.85;5.83;;;;;;;-8.01;100.00;100590.08;1673509;86;21007;-61
2022/01/25 06:51:47;;;;;;;9.50;5.47;;;;;;;-7.94;100.00;100580.64;1677423;84;21039;-61
2022/01/25 06:54:13;;;;;;;10.35;5.53;;;;;;;-7.96;100.00;100574.16;1701714;84;21015;-61
2022/01/25 06:56:40;;;;;;;9.13;4.97;;;;;;;-7.92;100.00;100567.64;1699921;84;21137;-62
2022/01/25 06:59:07;;;;;;;10.63;5.10;;;;;;;-7.85;100.00;100566.14;1701269;84;21565;-62
2022/01/25 07:01:33;;;;;;;9.78;5.40;;;;;;;-7.84;100.00;100563.86;1701193;84;21118;-62
2022/01/25 07:04:00;;;;;;;12.37;5.55;;;;;;;-7.87;100.00;100565.92;1688989;84;21102;-62
2022/01/25 07:06:27;;;;;;;9.95;6.00;;;;;;;-7.82;100.00;100558.41;1701507;84;21079;-62
2022/01/25 07:08:54;;;;;;;12.60;6.12;;;;;;;-7.75;100.00;100567.00;1701271;84;21115;-62
2022/01/25 07:11:20;;;;;;;;;;;;;;;-7.75;100.00;100559.06;1694720;84;21146;-61
2022/01/25 07:13:47;;;;;;;8.20;4.60;;;;;;;-7.76;100.00;100560.06;1672531;86;20168;-62
2022/01/25 07:16:14;;;;;;;9.70;5.12;;;;;;;-7.75;100.00;100563.52;1640580;87;21146;-61
2022/01/25 07:18:41;;;;;;;10.32;5.50;;;;;;;-7.72;100.00;100557.98;1637997;87;21047;-62
2022/01/25 07:21:07;;;;;;;11.73;5.45;;;;;;;-7.71;100.00;100545.94;1639731;86;21083;-62
2022/01/25 07:23:34;;;;;;;;;;;;;;;-7.79;100.00;100550.21;1688580;84;21589;-62
2022/01/25 07:26:00;;;;;;;12.15;5.87;;;;;;;-7.90;100.00;100547.70;1700942;84;20515;-62
2022/01/25 07:28:26;;;;;;;11.30;5.35;;;;;;;-7.99;100.00;100551.12;1670657;84;21585;-61
2022/01/25 07:30:53;;;;;;;11.43;5.40;;;;;;;-7.95;100.00;100552.06;1691710;84;21601;-61
2022/01/25 07:33:19;;;;;;;10.95;5.92;;;;;;;-7.90;100.00;100549.02;1716740;82;21565;-62
2022/01/25 07:35:46;;;;;;;10.68;5.62;;;;;;;-7.96;100.00;100549.05;1743960;82;21604;-61
2022/01/25 07:38:15;;;;;;;9.65;4.65;;;;;;;-7.97;100.00;100545.24;1743982;82;21707;-62
2022/01/25 07:40:42;;;;;;;10.43;4.85;;;;;;;-7.94;100.00;100535.72;1741250;82;21045;-62
2022/01/25 07:43:08;;;;;;;9.08;5.08;;;;;;;-7.95;100.00;100540.16;1726077;82;21122;-61
2022/01/25 07:45:36;;;;;;;;;;;;;;;-8.00;100.00;100537.55;1716800;84;21066;-61
2022/01/25 07:48:05;;;;;;;7.45;4.20;;;;;;;-8.03;100.00;100533.86;1714582;84;20109;-61
2022/01/25 07:50:33;;;;;;;8.88;5.35;;;;;;;-8.15;100.00;100529.99;1734844;82;21039;-62
2022/01/25 07:53:00;;;;;;;10.85;5.37;;;;;;;-8.15;100.00;100529.19;1737460;82;21019;-62
2022/01/25 07:55:26;;;;;;;9.80;5.42;;;;;;;-8.19;100.00;100526.45;1732467;82;21039;-61
2022/01/25 07:57:53;;;;;;;12.00;5.85;;;;;;;-8.21;100.00;100521.29;1738844;82;20979;-61
2022/01/25 08:00:19;;;;;;;10.85;5.55;;;;;;;-8.15;100.00;100522.58;1733125;82;21094;-61
2022/01/25 08:02:46;;;;;;;13.35;5.47;;;;;;;-8.18;100.00;100521.50;1714614;83;20999;-62
2022/01/25 08:05:15;;;;;;;13.05;6.85;;;;;;;-8.12;100.00;100511.74;1714282;83;21035;-62
2022/01/25 08:07:43;;;;;;;12.35;6.22;;;;;;;-8.05;100.00;100515.52;1714354;84;21099;-62
2022/01/25 08:18:19;;;;;;;13.70;7.42;;;;;;;-7.79;100.00;100498.19;1819314;79;22615;-62
2022/01/25 08:20:45;;;;;;;12.33;6.22;;;;;;;-7.70;100.00;100497.87;1781476;80;21015;-62
2022/01/25 08:23:14;;;;;;;11.78;6.45;;;;;;;-7.62;100.00;100490.94;1763183;81;21055;-62
2022/01/25 08:25:40;;;;;;;10.65;5.87;;;;;;;-7.52;100.00;100490.09;1763238;81;21067;-62
2022/01/25 08:28:07;;;;;;;12.75;7.28;;;;;;;-7.46;100.00;100482.44;1751893;81;21014;-62
2022/01/25 08:30:34;;;;;;;12.50;6.20;;;;;;;-7.40;100.00;100474.45;1744863;81;21066;-62
2022/01/25 08:33:00;;;;;;;10.50;5.90;;;;;;;-7.32;100.00;100482.02;1763410;81;21114;-62
2022/01/25 08:35:27;;;;;;;13.83;6.65;;;;;;;-7.22;100.00;100482.84;1763579;81;21031;-62
2022/01/25 08:37:54;;;;;;;9.50;5.03;;;;;;;-7.11;100.00;100480.55;1756069;80;21002;-62
2022/01/25 08:40:20;;;;;;;10.85;6.17;;;;;;;-7.01;100.00;100483.20;1763748;81;21549;-62
2022/01/25 08:42:47;;;;;;;10.70;6.58;;;;;;;-7.08;100.00;100490.84;1763890;81;21584;-62
2022/01/25 08:45:13;;;;;;;11.12;6.17;;;;;;;-7.15;100.00;100494.55;1764136;81;21505;-62
2022/01/25 08:47:40;;;;;;;10.13;5.70;;;;;;;-7.20;100.00;100495.47;1746851;81;21604;-62
2022/01/25 08:50:08;;;;;;;;;;;;;;;-7.14;100.00;100477.70;1736359;81;21461;-62
2022/01/25 08:52:37;;;;;;;9.30;5.33;;;;;;;-7.00;100.00;100480.87;1733571;83;20104;-62
2022/01/25 08:55:06;;;;;;;10.08;5.87;;;;;;;-6.87;100.00;100474.30;1733655;83;21054;-60
2022/01/25 08:57:32;;;;;;;12.45;6.40;;;;;;;-6.87;100.00;100464.23;1736135;81;21014;-60
2022/01/25 08:59:59;;;;;;;11.43;6.80;;;;;;;-6.92;100.00;100475.72;1733811;82;20982;-60
2022/01/25 09:02:25;;;;;;;8.88;5.50;;;;;;;-7.06;100.00;100468.58;1733316;83;21073;-60
2022/01/25 09:04:51;;;;;;;12.88;6.97;;;;;;;-7.00;100.00;100462.35;1733937;83;21057;-61
2022/01/25 09:07:18;;;;;;;11.50;6.45;;;;;;;-6.92;100.00;100462.00;1756848;81;21126;-60
2022/01/25 09:09:44;;;;;;;10.32;6.08;;;;;;;-6.92;100.00;100458.03;1733634;81;21011;-61
2022/01/25 09:12:11;;;;;;;;;;;;;;;-6.91;100.00;100449.61;1735979;83;21109;-61
2022/01/25 09:14:37;;;;;;;8.60;5.42;;;;;;;-6.91;100.00;100453.09;1733730;83;20128;-61
2022/01/25 09:17:07;;;;;;;;;;;;;;;-6.92;100.00;100442.63;1733421;80;21506;-60
2022/01/25 09:19:32;;;;;;;16.07;6.17;;;;;;;-6.85;100.00;100435.30;1720102;82;20109;-61
2022/01/25 09:21:59;;;;;;;8.70;4.90;;;;;;;-6.80;100.00;100438.85;1720868;83;21035;-61
2022/01/25 09:24:26;;;;;;;9.63;5.90;;;;;;;-6.58;100.00;100426.08;1721134;83;21046;-61
2022/01/25 09:26:53;;;;;;;10.70;5.72;;;;;;;-6.38;100.00;100416.73;1743611;82;21072;-61
2022/01/25 09:29:19;;;;;;;9.85;5.35;;;;;;;-6.18;100.00;100412.99;1715088;83;21112;-62
2022/01/25 09:31:46;;;;;;;10.32;6.10;;;;;;;-6.05;100.00;100410.32;1714723;83;21105;-61
2022/01/25 09:34:12;;;;;;;9.78;5.90;;;;;;;-5.94;100.00;100411.92;1714738;83;21116;-60
2022/01/25 09:36:39;;;;;;;12.60;6.67;;;;;;;-5.80;100.00;100399.44;1721235;82;21087;-61
2022/01/25 09:39:06;;;;;;;10.50;6.15;;;;;;;-5.76;100.00;100394.67;1720026;83;21035;-60
2022/01/25 09:41:33;;;;;;;;;;;;;;;-5.85;100.00;100397.75;1722750;83;21070;-61
2022/01/25 09:43:59;;;;;;;8.93;5.47;;;;;;;-5.94;100.00;100400.00;1722601;82;20112;-61
2022/01/25 09:46:26;;;;;;;8.58;4.75;;;;;;;-6.06;100.00;100397.23;1738227;82;21090;-61
2022/01/25 09:48:53;;;;;;;9.55;5.60;;;;;;;-5.98;100.00;100392.00;1750094;82;21046;-61
2022/01/25 09:51:20;;;;;;;9.48;5.65;;;;;;;-5.87;100.00;100389.13;1750342;82;21035;-61
2022/01/25 09:53:47;;;;;;;8.60;4.97;;;;;;;-5.79;100.00;100383.05;1730847;82;20991;-61
2022/01/25 09:56:14;;;;;;;10.70;6.22;;;;;;;-5.76;100.00;100384.91;1723474;82;21613;-62
2022/01/25 09:58:42;;;;;;;10.03;5.67;;;;;;;-5.77;100.00;100377.92;1728858;82;21062;-62
2022/01/25 10:01:09;;;;;;;8.50;5.17;;;;;;;-5.76;100.00;100376.95;1730553;82;21046;-62
2022/01/25 10:03:38;;;;;;;9.93;5.45;;;;;;;-5.80;100.00;100372.92;1733051;82;21062;-61
2022/01/25 10:06:14;;;;;;;10.40;5.42;;;;;;;-5.88;100.00;100379.50;1731341;82;21091;-63
2022/01/25 10:08:41;;;;;;;9.83;5.30;;;;;;;-5.94;100.00;100372.16;1747285;81;21023;-62
2022/01/25 10:11:14;;;;;;;8.75;5.50;;;;;;;-6.09;100.00;100365.22;1748759;82;21690;-63
2022/01/25 10:13:48;;;;;;;8.65;5.22;;;;;;;-5.94;100.00;100364.20;1733031;82;21047;-62
2022/01/25 10:16:20;;;;;;;8.83;5.00;;;;;;;-5.65;100.00;100366.11;1728057;82;21616;-63
2022/01/25 10:18:50;;;;;;;10.00;5.58;;;;;;;-5.55;100.00;100360.71;1720034;83;21042;-61
2022/01/25 10:21:21;;;;;;;9.15;5.72;;;;;;;-5.59;100.00;100352.22;1731243;82;21093;-61
2022/01/25 10:24:08;;;;;;;8.90;4.90;;;;;;;-5.64;100.00;100347.89;1741280;82;21043;-62
2022/01/25 10:26:41;;;;;;;8.45;5.12;;;;;;;-5.67;100.00;100341.54;1749952;82;21047;-63
2022/01/25 10:29:09;;;;;;;10.60;5.40;;;;;;;-5.49;100.00;100334.88;1749853;82;21015;-63
2022/01/25 10:31:39;;;;;;;9.70;5.45;;;;;;;-5.20;100.00;100327.46;1749687;82;21039;-63
2022/01/25 10:34:08;;;;;;;8.88;5.55;;;;;;;-5.03;100.00;100321.25;1728328;82;20971;-63
2022/01/25 10:36:46;;;;;;;10.13;6.08;;;;;;;-5.03;100.00;100315.14;1720169;81;21070;-63
2022/01/25 10:39:21;;;;;;;8.93;5.65;;;;;;;-5.09;100.00;100320.56;1719942;83;21034;-63
2022/01/25 10:41:47;;;;;;;10.00;5.80;;;;;;;-5.09;100.00;100315.25;1728213;82;21022;-63
2022/01/25 10:44:14;;;;;;;9.60;6.00;;;;;;;-5.15;100.00;100317.71;1749792;82;21083;-63
2022/01/25 10:46:41;;;;;;;9.35;5.78;;;;;;;-5.21;100.00;100318.34;1749695;82;21067;-63
2022/01/25 10:49:11;;;;;;;9.68;6.42;;;;;;;-5.27;100.00;100310.98;1748526;82;21035;-63
2022/01/25 10:51:48;;;;;;;10.23;6.28;;;;;;;-5.37;100.00;100308.45;1748165;82;21019;-63
2022/01/25 10:54:22;;;;;;;;;;;;;;;-5.39;100.00;100308.28;1722761;82;21054;-63
2022/01/25 10:56:57;;;;;;;11.12;6.33;;;;;;;-5.40;100.00;100306.11;1720848;82;20106;-63
2022/01/25 10:59:28;;;;;;;10.05;6.15;;;;;;;-5.48;100.00;100308.70;1720329;83;20986;-63
2022/01/25 11:01:59;;;;;;;12.55;6.03;;;;;;;-5.65;100.00;100310.41;1740426;82;21015;-64
2022/01/25 11:04:38;;;;;;;11.63;6.80;;;;;;;-5.62;100.00;100311.42;1749915;82;21019;-64
2022/01/25 11:07:10;;;;;;;9.43;6.08;;;;;;;-5.48;100.00;100306.05;1749452;82;21122;-64
2022/01/25 11:09:43;;;;;;;13.10;7.45;;;;;;;-5.43;100.00;100307.75;1727769;82;20975;-64
2022/01/25 11:12:13;;;;;;;11.30;7.35;;;;;;;-5.30;100.00;100299.36;1722087;82;21114;-63
2022/01/25 11:15:00;;;;;;;12.70;6.75;;;;;;;-5.27;100.00;100297.23;1723437;80;21019;-63
2022/01/25 11:17:29;;;;;;;12.70;6.78;;;;;;;-5.37;100.00;100286.38;1742128;82;21495;-63
2022/01/25 11:19:58;;;;;;;12.47;7.78;;;;;;;-5.56;100.00;100281.61;1743690;81;20944;-63
2022/01/25 11:22:24;;;;;;;11.35;6.60;;;;;;;-5.41;100.00;100274.41;1738242;81;21016;-63
2022/01/25 11:24:58;;;;;;;11.30;6.40;;;;;;;-5.17;100.00;100271.92;1737982;82;21000;-64
2022/01/25 11:27:26;;;;;;;11.08;6.92;;;;;;;-4.62;100.00;100265.17;1742343;81;21500;-63
2022/01/25 11:30:01;;;;;;;14.25;8.30;;;;;;;-3.80;100.00;100258.13;1754622;81;21036;-63
2022/01/25 11:32:34;;;;;;;13.35;7.92;;;;;;;-3.27;100.00;100254.89;1738618;81;21039;-63
2022/01/25 11:35:01;;;;;;;13.48;8.50;;;;;;;-2.83;100.00;100244.07;1738262;81;21039;-64
2022/01/25 11:37:41;;;;;;;15.88;8.48;;;;;;;-2.35;100.00;100227.49;1734882;82;21111;-64
2022/01/25 11:40:28;;;;;;;15.78;8.20;;;;;;;-2.10;100.00;100220.48;1748890;81;21008;-64
2022/01/25 11:43:32;;;;;;;12.07;7.80;;;;;;;-2.21;96.81;100214.72;1819137;79;23526;-65
2022/01/25 11:46:02;;;;;;;15.40;9.40;;;;;;;-2.39;96.87;100211.02;1769453;80;21741;-65
2022/01/25 11:48:37;;;;;;;13.45;8.98;;;;;;;-2.73;92.23;100210.04;1758446;81;21557;-65
2022/01/25 11:51:08;;;;;;;12.85;9.00;;;;;;;-3.07;96.83;100203.72;1760428;80;21568;-65
2022/01/25 11:53:37;;;;;;;12.23;8.33;;;;;;;-2.88;100.00;100201.64;1759378;81;21485;-65
2022/01/25 11:56:04;;;;;;;13.90;9.40;;;;;;;-2.61;100.00;100197.98;1719998;81;21039;-65
2022/01/25 11:58:32;;;;;;;13.95;8.98;;;;;;;-2.64;94.84;100193.02;1727913;81;21081;-65
2022/01/25 12:01:02;;;;;;;13.75;8.63;;;;;;;-2.82;95.88;100183.13;1733447;83;21101;-65
2022/01/25 12:03:35;;;;;;;15.43;9.38;;;;;;;-2.53;98.40;100185.95;1754756;81;21447;-65
2022/01/25 12:06:17;;;;;;;15.72;8.83;;;;;;;-2.47;93.02;100186.23;1763311;81;21018;-65
2022/01/25 12:09:42;;;;;;;12.82;8.78;;;;;;;-2.47;93.21;100184.91;1759862;81;20951;-65
2022/01/25 12:12:07;;;;;;;13.00;8.05;;;;;;;-2.60;91.21;100191.66;1761305;81;21053;-64
2022/01/25 12:14:46;;;;;;;12.60;8.58;;;;;;;-3.25;92.71;100176.99;1675200;84;20997;-65
2022/01/25 12:17:19;;;;;;;14.20;8.35;;;;;;;-3.64;96.39;100174.28;1719627;83;21561;-64
2022/01/25 12:20:00;;;;;;;15.48;9.10;;;;;;;-3.92;100.00;100168.52;1694400;84;20998;-65
2022/01/25 12:25:27;;;;;;;11.90;7.72;;;;;;;-4.28;100.00;100152.59;1695165;84;21497;-65
2022/01/25 12:28:03;;;;;;;13.72;8.38;;;;;;;-4.40;100.00;100161.91;1695793;83;21019;-64
2022/01/25 12:30:42;;;;;;;14.40;8.70;;;;;;;-4.67;100.00;100153.23;1695177;84;21074;-65
2022/01/25 12:33:12;;;;;;;14.45;9.08;;;;;;;-4.93;100.00;100151.70;1710389;83;21038;-65
2022/01/25 12:35:56;;;;;;;14.75;9.33;;;;;;;-5.03;100.00;100158.50;1724660;83;21106;-64
2022/01/25 12:38:43;;;;;;;15.30;9.18;;;;;;;-5.11;100.00;100154.48;1689488;83;21036;-64
2022/01/25 12:41:15;;;;;;;13.62;8.50;;;;;;;-5.23;100.00;100140.66;1678628;85;21077;-65
2022/01/25 12:43:54;;;;;;;16.95;9.98;;;;;;;-5.23;100.00;100143.81;1687754;85;21009;-64
2022/01/25 12:46:30;;;;;;;15.15;8.98;;;;;;;-5.31;100.00;100151.24;1688362;83;21109;-64
2022/01/25 12:49:01;;;;;;;14.80;8.98;;;;;;;-5.39;100.00;100148.58;1693308;83;20983;-64
2022/01/25 12:51:34;;;;;;;17.92;10.15;;;;;;;-5.43;100.00;100147.72;1687960;83;21063;-64
2022/01/25 12:54:02;;;;;;;15.40;9.68;;;;;;;-5.53;100.00;100138.05;1688210;83;20968;-64
2022/01/25 12:56:34;;;;;;;16.82;9.93;;;;;;;-5.58;100.00;100133.73;1688442;83;21079;-64
2022/01/25 12:59:08;;;;;;;15.30;9.28;;;;;;;-5.57;100.00;100125.28;1728240;83;21545;-64
2022/01/25 13:01:37;;;;;;;17.62;9.90;;;;;;;-5.60;100.00;100129.59;1727801;83;21113;-65
2022/01/25 13:04:05;;;;;;;26.77;12.98;;;;;;;-5.62;100.00;100127.08;1728093;83;21074;-63
2022/01/25 13:06:33;;;;;;;16.62;9.98;;;;;;;-5.61;100.00;100126.09;1745042;81;21014;-62
2022/01/25 13:09:24;;;;;;;22.35;11.63;;;;;;;-5.70;100.00;100119.08;1758014;81;20991;-62
2022/01/25 13:16:56;;;;;;;15.25;9.65;;;;;;;-5.80;100.00;100134.27;1727937;83;21026;-62
2022/01/25 13:19:32;;;;;;;17.42;10.08;;;;;;;-5.85;100.00;100134.42;1728026;83;20999;-62
2022/01/25 13:22:07;;;;;;;14.03;8.98;;;;;;;-5.85;100.00;100135.26;1727727;82;21085;-64
2022/01/25 13:24:45;;;;;;;21.33;11.65;;;;;;;-5.81;100.00;100121.19;1730015;81;21419;-64
2022/01/25 13:27:12;;;;;;;14.60;9.58;;;;;;;-5.70;100.00;100112.94;1756861;81;21090;-63